Time;durP1;ratioP1;P1;durP2;ratioP2;P2;SDS_P1;SDS_P2;PMS_P1;PMS_P2;Temp;Humidity;BMP_temperature;BMP_pressure;BME280_temperature;BME280_humidity;BME280_pressure;Samples;Min_cycle;Max_cycle;Signal;HPM_P1;HPM_P2
2021/12/09 00:01:24;;;;;;;9.05;1.98;;;;;;;20.43;33.11;100088.88;7313916;19;130828;-59
2021/12/09 00:03:55;;;;;;;5.07;1.90;;;;;;;20.40;33.42;100086.66;7312327;19;130503;-59
2021/12/09 00:06:25;;;;;;;10.40;1.88;;;;;;;20.40;33.50;100086.66;7312766;19;128864;-59
2021/12/09 00:08:55;;;;;;;6.28;2.20;;;;;;;20.38;33.42;100088.88;7311204;19;134523;-59
2021/12/09 00:11:22;;;;;;;7.45;1.65;;;;;;;20.36;33.23;100102.19;7313346;19;130563;-59
2021/12/09 00:13:49;;;;;;;4.80;1.90;;;;;;;20.33;33.28;100097.19;7314020;19;130514;-59
2021/12/09 00:16:16;;;;;;;5.00;1.65;;;;;;;20.31;33.29;100096.66;7311332;19;129264;-59
2021/12/09 00:18:43;;;;;;;5.30;1.50;;;;;;;20.30;33.55;100093.03;7314741;19;129173;-59
2021/12/09 00:21:11;;;;;;;11.07;1.75;;;;;;;20.27;33.07;100099.13;7311230;19;130567;-59
2021/12/09 00:23:38;;;;;;;5.00;1.85;;;;;;;20.25;33.24;100102.22;7314988;19;130624;-59
2021/12/09 00:26:06;;;;;;;7.53;1.95;;;;;;;20.23;33.13;100093.31;7310457;19;129547;-58
2021/12/09 00:28:33;;;;;;;5.70;1.63;;;;;;;20.21;33.51;100106.63;7313173;19;128819;-59
2021/12/09 00:31:01;;;;;;;4.25;1.58;;;;;;;20.20;33.24;100093.03;7313014;19;130704;-59
2021/12/09 00:33:28;;;;;;;7.07;2.28;;;;;;;20.19;33.18;100103.31;7312811;19;130652;-59
2021/12/09 00:35:57;;;;;;;4.07;1.90;;;;;;;20.16;33.05;100098.31;7313679;19;130461;-59
2021/12/09 00:38:37;;;;;;;5.43;1.80;;;;;;;20.16;33.36;100098.31;7312216;19;129171;-59
2021/12/09 00:41:13;;;;;;;4.78;1.77;;;;;;;20.15;33.20;100102.22;7312997;19;131324;-58
2021/12/09 00:43:42;;;;;;;5.38;1.23;;;;;;;20.12;33.29;100097.19;7309661;19;130606;-58
2021/12/09 00:46:09;;;;;;;3.78;1.52;;;;;;;20.10;33.19;100091.09;7312292;19;129767;-59
2021/12/09 00:48:36;;;;;;;4.30;1.80;;;;;;;20.08;33.38;100084.97;7308908;19;128974;-58
2021/12/09 00:51:05;;;;;;;4.10;1.45;;;;;;;20.06;33.12;100095.53;7312123;19;130319;-59
2021/12/09 00:53:33;;;;;;;3.83;1.38;;;;;;;20.04;33.32;100086.66;7314364;19;131255;-59
2021/12/09 00:56:02;;;;;;;3.97;1.40;;;;;;;20.01;33.49;100087.19;7317899;19;129360;-59
2021/12/09 00:58:29;;;;;;;2.70;1.48;;;;;;;19.99;33.12;100085.53;7319526;19;128759;-59
2021/12/09 01:00:56;;;;;;;4.93;1.60;;;;;;;19.98;33.13;100081.06;7317319;19;130869;-60
2021/12/09 01:03:23;;;;;;;3.13;1.40;;;;;;;19.96;33.10;100088.81;7319640;19;131259;-59
2021/12/09 01:05:50;;;;;;;5.13;1.45;;;;;;;19.94;33.51;100085.47;7317298;19;133167;-59
2021/12/09 01:08:37;;;;;;;3.30;1.37;;;;;;;19.93;33.54;100088.53;7318939;19;128968;-59
2021/12/09 01:11:06;;;;;;;5.15;1.50;;;;;;;19.91;33.32;100090.75;7317011;19;130734;-59
2021/12/09 01:13:33;;;;;;;4.43;1.40;;;;;;;19.90;33.46;100089.09;7316088;19;130833;-59
2021/12/09 01:16:00;;;;;;;4.80;1.50;;;;;;;19.87;33.50;100095.22;7317875;19;129154;-59
2021/12/09 01:18:31;;;;;;;3.15;1.30;;;;;;;19.86;33.48;100099.91;7316556;19;128869;-59
2021/12/09 01:20:58;;;;;;;4.65;1.40;;;;;;;19.84;33.30;100102.97;7319543;19;130991;-59
2021/12/09 01:23:25;;;;;;;3.15;1.40;;;;;;;19.84;33.38;100102.13;7317352;19;130751;-59
2021/12/09 01:25:58;;;;;;;5.70;1.50;;;;;;;19.82;33.40;100110.72;7319152;19;128884;-58
2021/12/09 01:28:28;;;;;;;3.75;1.50;;;;;;;19.81;33.29;100106.28;7316544;19;129068;-59
2021/12/09 01:31:01;;;;;;;5.22;1.75;;;;;;;19.79;33.24;100107.69;7316949;19;130600;-58
2021/12/09 01:33:32;;;;;;;2.15;1.30;;;;;;;19.78;33.04;100104.06;7317895;19;130562;-59
2021/12/09 01:36:00;;;;;;;2.67;1.25;;;;;;;19.77;33.42;100101.56;7316667;19;128823;-59
2021/12/09 01:38:30;;;;;;;3.55;1.63;;;;;;;19.76;33.38;100097.94;7317272;19;129453;-59
2021/12/09 01:40:57;;;;;;;2.80;1.23;;;;;;;19.75;33.40;100093.53;7315320;19;130434;-59
2021/12/09 01:43:24;;;;;;;5.80;1.63;;;;;;;19.74;33.49;100102.09;7318260;19;131340;-59
2021/12/09 01:46:10;;;;;;;3.13;1.50;;;;;;;19.74;33.23;100102.97;7316258;19;129657;-59
2021/12/09 01:48:39;;;;;;;2.67;1.15;;;;;;;19.73;33.63;100100.44;7316537;19;128842;-59
2021/12/09 01:51:07;;;;;;;4.28;1.25;;;;;;;19.70;33.20;100107.38;7316159;19;131069;-59
2021/12/09 01:53:34;;;;;;;3.42;1.33;;;;;;;19.68;33.27;100107.66;7315253;19;130557;-60
2021/12/09 01:56:06;;;;;;;2.72;1.20;;;;;;;19.67;33.66;100111.53;7318286;19;128866;-59
2021/12/09 01:58:33;;;;;;;5.57;1.58;;;;;;;19.66;33.36;100107.09;7314675;19;132739;-59
2021/12/09 02:01:02;;;;;;;3.63;1.35;;;;;;;19.66;33.63;100109.88;7319011;19;130578;-58
2021/12/09 02:03:29;;;;;;;2.72;1.52;;;;;;;19.66;33.56;100103.47;7314277;19;131181;-58
2021/12/09 02:05:56;;;;;;;4.28;1.65;;;;;;;19.66;33.51;100103.47;7315964;19;128827;-58
2021/12/09 02:08:23;;;;;;;3.47;1.40;;;;;;;19.66;33.39;100114.56;7312867;19;129281;-59
2021/12/09 02:10:51;;;;;;;3.35;1.40;;;;;;;19.65;33.42;100099.88;7315545;19;130888;-59
2021/12/09 02:13:19;;;;;;;3.35;1.38;;;;;;;19.65;33.27;100101.81;7317619;19;130566;-59
2021/12/09 02:15:47;;;;;;;2.03;1.05;;;;;;;19.63;33.53;100102.09;7315906;19;129471;-59
2021/12/09 02:18:14;;;;;;;2.25;0.80;;;;;;;19.64;33.34;100100.97;7316046;19;129829;-59
2021/12/09 02:20:42;;;;;;;4.57;1.40;;;;;;;19.63;33.24;100101.28;7315090;19;131659;-59
2021/12/09 02:23:11;;;;;;;3.30;1.23;;;;;;;19.62;33.65;100097.63;7318836;19;131157;-59
2021/12/09 02:25:44;;;;;;;4.35;1.10;;;;;;;19.64;33.20;100102.91;7314179;19;129505;-59
2021/12/09 02:28:14;;;;;;;3.17;1.40;;;;;;;19.63;33.43;100106.81;7316861;19;128886;-59
2021/12/09 02:30:42;;;;;;;3.75;1.40;;;;;;;19.62;33.12;100105.16;7314322;19;130789;-59
2021/12/09 02:33:09;;;;;;;4.43;1.55;;;;;;;19.63;33.24;100098.50;7317128;19;130538;-59
2021/12/09 02:35:38;;;;;;;3.53;1.30;;;;;;;19.63;33.22;100096.53;7317343;19;129238;-59
2021/12/09 02:38:07;;;;;;;3.58;0.90;;;;;;;19.59;33.59;100103.72;7314039;19;129561;-59
2021/12/09 02:40:34;;;;;;;2.40;1.38;;;;;;;19.58;33.45;100102.06;7316810;19;130667;-58
2021/12/09 02:43:04;;;;;;;3.15;1.13;;;;;;;19.58;33.18;100098.47;7313847;19;130343;-59
2021/12/09 02:45:31;;;;;;;2.70;1.48;;;;;;;19.57;33.48;100096.78;7317721;19;128685;-59
2021/12/09 02:47:58;;;;;;;3.17;1.23;;;;;;;19.55;33.01;100104.56;7311472;19;129226;-58
2021/12/09 02:50:25;;;;;;;2.33;1.10;;;;;;;19.53;33.48;100099.28;7316386;19;131359;-59
2021/12/09 02:52:51;;;;;;;2.63;1.00;;;;;;;19.52;33.50;100106.75;7314492;19;130518;-59
2021/12/09 02:55:18;;;;;;;2.38;1.20;;;;;;;19.52;33.23;100111.50;7315321;19;129334;-58
2021/12/09 02:57:45;;;;;;;1.92;1.05;;;;;;;19.51;33.44;100110.63;7315882;19;129016;-59
2021/12/09 03:00:13;;;;;;;2.25;1.10;;;;;;;19.51;33.48;100115.38;7313253;19;131489;-59
2021/12/09 03:02:42;;;;;;;3.92;1.50;;;;;;;19.50;33.03;100113.69;7315263;19;130409;-59
2021/12/09 03:05:10;;;;;;;2.85;1.30;;;;;;;19.49;33.49;100114.78;7314316;19;129053;-59
2021/12/09 03:07:40;;;;;;;3.65;1.20;;;;;;;19.48;33.51;100115.91;7314618;19;128896;-59
2021/12/09 03:10:21;;;;;;;2.58;1.30;;;;;;;19.48;33.36;100115.91;7312243;19;130627;-59
2021/12/09 03:12:52;;;;;;;2.70;1.02;;;;;;;19.48;33.52;100110.34;7314226;19;130512;-58
2021/12/09 03:15:19;;;;;;;2.58;1.20;;;;;;;19.47;33.37;100108.69;7313676;19;128856;-59
2021/12/09 03:17:47;;;;;;;2.20;1.10;;;;;;;19.46;33.28;100113.41;7310645;19;129422;-59
2021/12/09 03:20:17;;;;;;;3.20;1.45;;;;;;;19.45;33.10;100125.59;7316613;19;130632;-59
2021/12/09 03:22:45;;;;;;;2.78;1.42;;;;;;;19.46;33.26;100123.66;7313901;19;130574;-59
2021/12/09 03:25:13;;;;;;;1.63;1.17;;;;;;;19.46;33.17;100118.97;7316823;19;129071;-59
2021/12/09 03:27:40;;;;;;;2.90;1.17;;;;;;;19.47;33.16;100125.31;7312298;19;129672;-59
2021/12/09 03:30:11;;;;;;;2.20;1.23;;;;;;;19.47;33.23;100119.78;7315251;19;130284;-59
2021/12/09 03:32:38;;;;;;;2.22;1.10;;;;;;;19.48;33.08;100129.78;7310958;19;130722;-59
2021/12/09 03:35:06;;;;;;;2.40;1.05;;;;;;;19.47;33.18;100134.50;7316113;19;128976;-58
2021/12/09 03:37:33;;;;;;;1.33;0.90;;;;;;;19.46;33.31;100140.28;7311298;19;128919;-58
2021/12/09 03:40:00;;;;;;;2.47;1.02;;;;;;;19.45;33.33;100133.09;7312784;19;130754;-59
2021/12/09 03:42:29;;;;;;;2.65;0.90;;;;;;;19.45;33.37;100138.63;7315980;19;130795;-59
2021/12/09 03:44:57;;;;;;;2.30;1.10;;;;;;;19.44;33.47;100137.00;7310806;19;129914;-58
2021/12/09 03:47:27;;;;;;;2.10;1.00;;;;;;;19.44;33.29;100132.25;7311950;19;129425;-58
2021/12/09 03:49:55;;;;;;;1.98;1.17;;;;;;;19.43;33.12;100136.13;7311763;19;130693;-58
2021/12/09 03:52:24;;;;;;;2.30;1.10;;;;;;;19.42;33.34;100145.56;7314832;19;130712;-58
2021/12/09 03:54:51;;;;;;;1.67;0.82;;;;;;;19.40;33.48;100152.50;7313363;19;129031;-60
2021/12/09 03:57:18;;;;;;;1.70;0.90;;;;;;;19.40;33.54;100156.09;7313262;19;129371;-59
2021/12/09 03:59:46;;;;;;;4.20;1.00;;;;;;;19.38;33.51;100156.38;7311980;19;131416;-59
2021/12/09 04:02:16;;;;;;;3.20;0.90;;;;;;;19.38;33.09;100156.38;7311561;19;131475;-59
2021/12/09 04:04:43;;;;;;;1.85;0.98;;;;;;;19.37;33.05;100157.47;7313743;19;128907;-59
2021/12/09 04:07:10;;;;;;;2.30;1.00;;;;;;;19.35;33.51;100156.91;7312751;19;129431;-59
2021/12/09 04:09:37;;;;;;;4.70;1.40;;;;;;;19.36;33.47;100155.78;7314580;19;130676;-58
2021/12/09 04:12:05;;;;;;;2.90;1.25;;;;;;;19.35;33.43;100161.63;7310568;19;130528;-59
2021/12/09 04:14:32;;;;;;;2.58;0.93;;;;;;;19.34;33.62;100159.97;7313766;19;129061;-59
2021/12/09 04:16:59;;;;;;;1.42;0.80;;;;;;;19.33;33.52;100164.66;7310844;19;129068;-59
2021/12/09 04:19:25;;;;;;;2.03;1.10;;;;;;;19.31;33.35;100161.34;7313036;19;130657;-59
2021/12/09 04:21:53;;;;;;;1.73;1.00;;;;;;;19.30;33.09;100154.13;7310953;19;130567;-59
2021/12/09 04:24:20;;;;;;;1.88;1.00;;;;;;;19.30;33.52;100165.22;7312898;19;128813;-58
2021/12/09 04:26:51;;;;;;;2.30;1.13;;;;;;;19.29;33.58;100158.00;7312096;19;128804;-59
2021/12/09 04:29:18;;;;;;;2.30;1.10;;;;;;;19.29;33.06;100157.16;7315559;19;132625;-59
2021/12/09 04:31:47;;;;;;;1.98;1.00;;;;;;;19.27;33.70;100153.81;7321894;19;130717;-59
2021/12/09 04:34:15;;;;;;;2.30;0.90;;;;;;;19.26;33.40;100158.53;7316562;19;128990;-59
2021/12/09 04:36:42;;;;;;;3.60;1.20;;;;;;;19.25;33.52;100151.31;7319994;19;130445;-58
2021/12/09 04:39:09;;;;;;;3.53;1.10;;;;;;;19.25;33.53;100153.25;7318329;19;131113;-60
2021/12/09 04:41:35;;;;;;;1.38;0.98;;;;;;;19.23;33.21;100150.75;7318639;19;130554;-58
2021/12/09 04:44:04;;;;;;;1.70;1.13;;;;;;;19.23;33.57;100156.28;7318817;19;129091;-59
2021/12/09 04:46:30;;;;;;;1.85;0.98;;;;;;;19.22;33.48;100151.84;7317190;19;128853;-59
2021/12/09 04:48:57;;;;;;;2.03;0.80;;;;;;;19.21;33.12;100155.72;7318142;19;130583;-59
2021/12/09 04:51:24;;;;;;;1.70;0.80;;;;;;;19.21;33.62;100161.25;7318457;19;130661;-59
2021/12/09 04:53:51;;;;;;;1.42;0.95;;;;;;;19.20;33.43;100154.88;7320290;19;129243;-59
2021/12/09 04:56:18;;;;;;;1.90;0.93;;;;;;;19.19;33.15;100164.28;7315732;19;129027;-59
2021/12/09 04:58:44;;;;;;;3.00;0.93;;;;;;;19.19;33.25;100166.25;7320471;19;130593;-59
2021/12/09 05:01:11;;;;;;;2.05;0.90;;;;;;;19.19;33.52;100169.00;7316411;19;131257;-59
2021/12/09 05:03:39;;;;;;;2.42;0.95;;;;;;;19.19;33.53;100166.25;7316835;19;129409;-58
2021/12/09 05:06:06;;;;;;;1.67;0.80;;;;;;;19.17;33.28;100160.94;7317327;19;128805;-59
2021/12/09 05:08:33;;;;;;;2.42;0.88;;;;;;;19.14;33.39;100166.19;7316093;19;130465;-58
2021/12/09 05:11:07;;;;;;;1.63;0.88;;;;;;;19.15;33.49;100162.31;7319045;19;130532;-59
2021/12/09 05:13:37;;;;;;;1.92;0.85;;;;;;;19.15;33.47;100167.88;7316302;19;131892;-59
2021/12/09 05:16:06;;;;;;;3.03;1.20;;;;;;;19.15;33.36;100170.63;7319840;19;128935;-58
2021/12/09 05:18:35;;;;;;;1.83;1.15;;;;;;;19.14;33.55;100169.78;7315173;19;131239;-59
2021/12/09 05:21:05;;;;;;;1.35;0.80;;;;;;;19.13;33.45;100170.91;7317890;19;130591;-59
2021/12/09 05:23:33;;;;;;;1.48;0.88;;;;;;;19.13;33.57;100170.91;7315369;19;128899;-58
2021/12/09 05:26:01;;;;;;;2.47;1.05;;;;;;;19.13;33.29;100178.38;7317186;19;129063;-58
2021/12/09 05:28:34;;;;;;;3.05;1.00;;;;;;;19.13;33.16;100183.94;7316510;19;132100;-59
2021/12/09 05:33:50;;;;;;;2.65;0.90;;;;;;;19.11;33.26;100186.13;7319045;19;128905;-58
2021/12/09 05:36:17;;;;;;;1.35;0.70;;;;;;;19.11;33.38;100194.44;7315116;19;133793;-59
2021/12/09 05:38:44;;;;;;;1.60;0.90;;;;;;;19.10;33.27;100195.53;7317156;19;130741;-59
2021/12/09 05:41:11;;;;;;;2.92;0.93;;;;;;;19.11;33.17;100202.75;7314862;19;130968;-59
2021/12/09 05:43:40;;;;;;;1.50;0.90;;;;;;;19.10;33.33;100198.31;7317107;19;129003;-59
2021/12/09 05:46:07;;;;;;;1.42;0.90;;;;;;;19.08;33.48;100196.66;7313418;19;129627;-59
2021/12/09 05:48:35;;;;;;;3.13;0.68;;;;;;;19.08;33.56;100201.38;7313730;19;130826;-58
2021/12/09 05:51:03;;;;;;;1.65;0.90;;;;;;;19.07;33.56;100197.78;7310870;19;130619;-58
2021/12/09 05:53:29;;;;;;;1.55;0.80;;;;;;;19.07;33.49;100206.09;7313812;19;128998;-58
2021/12/09 05:55:56;;;;;;;2.53;1.00;;;;;;;19.06;33.38;100193.34;7318588;19;128953;-59
2021/12/09 05:58:23;;;;;;;2.20;0.90;;;;;;;19.06;33.43;100211.88;7312539;19;131420;-58
2021/12/09 06:00:53;;;;;;;2.80;0.85;;;;;;;19.05;33.40;100194.44;7317010;19;131192;-59
2021/12/09 06:03:22;;;;;;;1.77;0.82;;;;;;;19.04;33.52;100203.84;7314742;19;128952;-58
2021/12/09 06:05:50;;;;;;;2.53;0.95;;;;;;;19.03;33.55;100204.94;7315381;19;128965;-60
2021/12/09 06:08:18;;;;;;;2.60;1.20;;;;;;;19.04;33.26;100212.16;7314969;19;131274;-59
2021/12/09 06:10:45;;;;;;;1.50;0.88;;;;;;;19.02;33.41;100206.03;7313932;19;131860;-59
2021/12/09 06:13:12;;;;;;;2.45;0.90;;;;;;;19.01;33.45;100207.16;7316617;19;128998;-59
2021/12/09 06:15:39;;;;;;;1.48;0.70;;;;;;;19.01;33.56;100209.91;7309859;19;129351;-58
2021/12/09 06:18:06;;;;;;;1.45;0.80;;;;;;;19.02;33.60;100216.28;7312439;19;132020;-59
2021/12/09 06:20:33;;;;;;;2.25;0.90;;;;;;;19.00;33.22;100211.00;7313254;19;130251;-59
2021/12/09 06:22:59;;;;;;;2.00;1.10;;;;;;;19.01;33.44;100214.63;7317570;19;129000;-58
2021/12/09 06:25:26;;;;;;;4.32;0.85;;;;;;;19.00;33.24;100216.56;7314196;19;131188;-58
2021/12/09 06:27:54;;;;;;;3.20;0.80;;;;;;;19.01;33.61;100217.41;7313571;19;130532;-59
2021/12/09 06:30:22;;;;;;;2.40;1.05;;;;;;;19.00;33.31;100221.28;7313747;19;131442;-59
2021/12/09 06:32:49;;;;;;;3.78;0.73;;;;;;;18.99;33.50;100202.97;7315462;19;129514;-59
2021/12/09 06:35:17;;;;;;;2.78;0.77;;;;;;;18.98;33.42;100204.06;7315101;19;129535;-59
2021/12/09 06:37:46;;;;;;;1.70;0.90;;;;;;;18.97;33.38;100206.00;7312888;19;130658;-58
2021/12/09 06:40:15;;;;;;;2.40;1.10;;;;;;;18.96;33.52;100201.56;7316565;19;130621;-59
2021/12/09 06:42:43;;;;;;;3.38;0.95;;;;;;;18.95;33.52;100213.78;7314415;19;129148;-58
2021/12/09 06:45:12;;;;;;;3.72;0.98;;;;;;;18.95;33.37;100213.78;7316946;19;128910;-58
2021/12/09 06:47:39;;;;;;;4.15;0.70;;;;;;;18.95;33.27;100211.00;7313805;19;130589;-58
2021/12/09 06:50:12;;;;;;;2.78;1.30;;;;;;;18.94;33.52;100205.69;7315158;19;131727;-58
2021/12/09 06:52:39;;;;;;;5.80;1.10;;;;;;;18.94;33.40;100201.00;7312358;19;130698;-55
2021/12/09 06:55:09;;;;;;;3.33;1.08;;;;;;;18.94;33.26;100202.94;7315261;19;128954;-59
2021/12/09 06:57:36;;;;;;;2.83;0.90;;;;;;;18.91;33.33;100198.75;7318012;19;133580;-59
2021/12/09 07:00:07;;;;;;;3.63;1.00;;;;;;;18.91;33.29;100196.00;7313392;19;131204;-59
2021/12/09 07:02:33;;;;;;;3.97;1.10;;;;;;;18.90;33.43;100199.84;7317091;19;129646;-59
2021/12/09 07:05:00;;;;;;;3.45;1.00;;;;;;;18.88;33.27;100196.50;7312958;19;129185;-59
2021/12/09 07:07:27;;;;;;;5.30;1.17;;;;;;;18.88;33.30;100207.59;7315478;19;130476;-59
2021/12/09 07:09:54;;;;;;;6.38;1.13;;;;;;;18.88;33.57;100202.91;7312424;19;130685;-58
2021/12/09 07:12:20;;;;;;;1.35;0.77;;;;;;;18.88;33.52;100208.44;7315791;19;130952;-58
2021/12/09 07:14:47;;;;;;;12.13;1.00;;;;;;;18.89;33.50;100209.28;7312426;19;129025;-59
2021/12/09 07:17:15;;;;;;;2.30;0.80;;;;;;;18.86;33.23;100207.03;7312659;19;130638;-59
2021/12/09 07:19:42;;;;;;;3.42;1.00;;;;;;;18.87;33.07;100209.56;7313891;19;131093;-59
2021/12/09 07:22:09;;;;;;;3.75;0.80;;;;;;;18.85;33.03;100203.44;7312124;19;129382;-59
2021/12/09 07:24:36;;;;;;;4.88;1.27;;;;;;;18.85;33.15;100208.13;7315250;19;129014;-59
2021/12/09 07:27:03;;;;;;;5.88;1.00;;;;;;;18.85;33.46;100202.59;7312717;19;131873;-59
2021/12/09 07:29:31;;;;;;;3.90;0.90;;;;;;;18.83;33.13;100211.16;7314023;19;131233;-59
2021/12/09 07:31:58;;;;;;;2.08;0.90;;;;;;;18.81;32.99;100213.38;7310469;19;132474;-59
2021/12/09 07:34:24;;;;;;;4.63;1.02;;;;;;;18.80;33.28;100216.41;7313760;19;128992;-59
2021/12/09 07:36:51;;;;;;;4.47;0.95;;;;;;;18.79;33.34;100218.34;7312618;19;130534;-59
2021/12/09 07:39:18;;;;;;;4.97;1.02;;;;;;;18.77;33.36;100218.59;7312785;19;130548;-59
2021/12/09 07:41:45;;;;;;;2.20;0.98;;;;;;;18.75;33.30;100223.56;7314538;19;128946;-59
2021/12/09 07:44:13;;;;;;;3.95;0.95;;;;;;;18.74;33.41;100232.16;7312797;19;130657;-58
2021/12/09 07:46:42;;;;;;;6.85;1.00;;;;;;;18.72;32.98;100232.41;7314334;19;131481;-59
2021/12/09 07:49:09;;;;;;;3.03;0.90;;;;;;;18.72;33.41;100235.19;7312064;19;130423;-59
2021/12/09 07:51:36;;;;;;;2.70;0.93;;;;;;;18.69;33.46;100235.72;7314816;19;128982;-59
2021/12/09 07:54:04;;;;;;;1.63;0.70;;;;;;;18.69;33.15;100244.03;7312672;19;129240;-58
2021/12/09 07:56:30;;;;;;;6.78;1.20;;;;;;;18.69;33.39;100243.19;7313658;19;130702;-59
2021/12/09 07:58:57;;;;;;;7.65;1.10;;;;;;;18.66;33.48;100241.78;7311231;19;130479;-59
2021/12/09 08:01:24;;;;;;;3.35;0.85;;;;;;;18.65;33.26;100234.56;7311288;19;129096;-59
2021/12/09 08:03:51;;;;;;;5.57;1.10;;;;;;;18.64;33.16;100235.66;7309621;19;129261;-58
2021/12/09 08:06:18;;;;;;;6.63;0.90;;;;;;;18.64;33.03;100241.22;7312160;19;131990;-59
2021/12/09 08:08:45;;;;;;;5.63;1.02;;;;;;;18.63;33.51;100233.19;7314081;19;130623;-59
2021/12/09 08:11:12;;;;;;;2.50;0.93;;;;;;;18.62;33.19;100243.41;7313185;19;129461;-59
2021/12/09 08:13:38;;;;;;;5.95;1.75;;;;;;;18.59;33.09;100241.16;7314998;19;129553;-59
2021/12/09 08:16:05;;;;;;;4.93;1.10;;;;;;;18.57;33.33;100241.44;7310397;19;131536;-59
2021/12/09 08:18:43;;;;;;;3.40;0.70;;;;;;;18.59;33.05;100243.91;7314054;19;130996;-59
2021/12/09 08:21:10;;;;;;;4.38;1.60;;;;;;;18.58;33.23;100245.06;7312054;19;129135;-60
2021/12/09 08:23:36;;;;;;;2.28;0.90;;;;;;;18.57;33.27;100244.19;7313492;19;128906;-59
2021/12/09 08:26:03;;;;;;;3.88;0.90;;;;;;;18.56;33.25;100250.00;7314567;19;130723;-59
2021/12/09 08:28:30;;;;;;;8.32;1.40;;;;;;;18.54;33.09;100250.25;7312236;19;131317;-59
2021/12/09 08:30:57;;;;;;;5.43;1.17;;;;;;;18.54;33.17;100253.03;7312047;19;129987;-59
2021/12/09 08:33:25;;;;;;;4.57;1.15;;;;;;;18.55;33.38;100260.25;7311152;19;129161;-59
2021/12/09 08:35:52;;;;;;;3.35;1.00;;;;;;;18.55;33.31;100264.97;7313797;19;130489;-59
2021/12/09 08:38:20;;;;;;;2.90;1.02;;;;;;;18.55;33.25;100263.00;7310198;19;131272;-55
2021/12/09 08:40:49;;;;;;;5.90;1.23;;;;;;;18.54;33.06;100274.38;7313315;19;128912;-59
2021/12/09 08:43:16;;;;;;;5.55;1.10;;;;;;;18.54;33.51;100274.38;7310623;19;129032;-59
2021/12/09 08:45:44;;;;;;;5.93;0.90;;;;;;;18.54;33.16;100274.38;7312428;19;130610;-59
2021/12/09 08:48:12;;;;;;;3.75;1.10;;;;;;;18.54;33.40;100272.41;7314036;19;131333;-59
2021/12/09 08:50:39;;;;;;;8.20;1.35;;;;;;;18.53;33.04;100267.97;7311186;19;128858;-59
2021/12/09 08:53:08;;;;;;;6.15;1.42;;;;;;;18.53;33.39;100275.47;7313389;19;128833;-59
2021/12/09 08:55:36;;;;;;;2.17;0.73;;;;;;;18.53;33.22;100272.69;7307375;19;130469;-59
2021/12/09 08:58:04;;;;;;;4.97;1.20;;;;;;;18.52;33.40;100271.00;7312407;19;130706;-59
2021/12/09 09:00:32;;;;;;;2.78;1.08;;;;;;;18.52;33.03;100271.88;7308743;19;129025;-59
2021/12/09 09:03:00;;;;;;;3.28;1.10;;;;;;;18.51;33.27;100269.34;7303554;19;129708;-59
2021/12/09 09:05:28;;;;;;;5.10;1.00;;;;;;;18.52;33.01;100271.00;7307341;19;131225;-59
2021/12/09 09:07:56;;;;;;;4.03;1.05;;;;;;;18.51;33.17;100269.34;7310377;19;131223;-59
2021/12/09 09:10:25;;;;;;;3.35;1.05;;;;;;;18.50;33.38;100276.81;7307387;19;129181;-59
2021/12/09 09:12:53;;;;;;;6.55;1.20;;;;;;;18.50;33.12;100264.88;7310850;19;129962;-59
2021/12/09 09:15:23;;;;;;;6.05;1.10;;;;;;;18.51;33.30;100269.34;7316587;19;130838;-59
2021/12/09 09:17:50;;;;;;;4.47;1.13;;;;;;;18.50;33.23;100278.75;7317840;19;130781;-59
2021/12/09 09:20:20;;;;;;;5.43;1.00;;;;;;;18.49;33.18;100271.53;7319395;19;130465;-59
2021/12/09 09:22:47;;;;;;;6.88;1.10;;;;;;;18.48;33.16;100270.72;7317527;19;130202;-59
2021/12/09 09:25:19;;;;;;;4.63;0.93;;;;;;;18.49;33.28;100277.06;7319501;19;130685;-59
2021/12/09 09:27:48;;;;;;;2.50;0.90;;;;;;;18.48;33.41;100275.38;7317597;19;131654;-59
2021/12/09 09:30:18;;;;;;;5.20;1.10;;;;;;;18.49;33.05;100277.91;7317212;19;129343;-59
2021/12/09 09:32:46;;;;;;;3.20;0.98;;;;;;;18.49;33.37;100277.06;7320092;19;128924;-59
2021/12/09 09:35:14;;;;;;;5.35;0.90;;;;;;;18.50;33.02;100278.75;7317377;19;131339;-59
2021/12/09 09:37:42;;;;;;;4.57;1.15;;;;;;;18.50;33.47;100275.97;7317902;19;130507;-58
2021/12/09 09:40:12;;;;;;;2.30;0.88;;;;;;;18.52;33.37;100273.78;7317368;19;130965;-59
2021/12/09 09:45:09;;;;;;;4.38;1.00;;;;;;;18.50;33.37;100278.75;7319364;19;130980;-59
2021/12/09 09:47:36;;;;;;;3.65;1.00;;;;;;;18.49;33.23;100286.22;7316417;19;131388;-59
2021/12/09 09:50:06;;;;;;;3.72;1.00;;;;;;;18.48;32.98;100281.78;7317823;19;129518;-58
2021/12/09 09:52:34;;;;;;;3.45;0.85;;;;;;;18.48;33.45;100292.00;7316079;19;129066;-59
2021/12/09 09:55:05;;;;;;;2.88;1.23;;;;;;;18.48;33.29;100280.94;7318522;19;130627;-60
2021/12/09 09:57:32;;;;;;;5.50;1.10;;;;;;;18.46;33.27;100289.50;7316432;19;131402;-59
2021/12/09 09:59:58;;;;;;;6.25;1.30;;;;;;;18.47;33.36;100291.19;7318429;19;129466;-59
2021/12/09 10:02:25;;;;;;;3.50;1.00;;;;;;;18.46;33.34;100283.97;7316328;19;131024;-59
2021/12/09 10:05:01;;;;;;;3.35;1.15;;;;;;;18.45;33.05;100283.16;7317070;19;130614;-59
2021/12/09 10:07:29;;;;;;;2.67;0.90;;;;;;;18.46;33.26;100289.50;7318331;19;131239;-59
2021/12/09 10:09:58;;;;;;;4.55;1.02;;;;;;;18.45;33.30;100287.84;7317027;19;128925;-59
2021/12/09 10:12:25;;;;;;;2.17;1.00;;;;;;;18.44;33.50;100288.94;7318904;19;128784;-59
2021/12/09 10:14:54;;;;;;;2.17;0.80;;;;;;;18.44;33.02;100281.47;7316194;19;130643;-59
2021/12/09 10:17:23;;;;;;;2.38;0.82;;;;;;;18.45;33.35;100283.16;7317492;19;130483;-59
2021/12/09 10:20:09;;;;;;;4.43;1.48;;;;;;;18.45;33.15;100280.38;7315338;19;129640;-59
2021/12/09 10:22:36;;;;;;;2.75;1.02;;;;;;;18.43;33.55;100271.50;7316988;19;129107;-59
2021/12/09 10:25:20;;;;;;;2.65;0.90;;;;;;;18.44;33.08;100273.16;7318176;19;131310;-59
2021/12/09 10:27:57;;;;;;;5.18;1.20;;;;;;;18.44;33.51;100270.41;7315343;19;130573;-59
2021/12/09 10:30:24;;;;;;;5.00;1.13;;;;;;;18.42;33.59;100267.06;7316260;19;130128;-59
2021/12/09 10:32:59;;;;;;;3.45;0.98;;;;;;;18.43;33.14;100268.72;7315293;19;129443;-59
2021/12/09 10:35:26;;;;;;;2.78;1.00;;;;;;;18.42;33.35;100261.50;7317811;19;130662;-59
2021/12/09 10:37:53;;;;;;;3.03;1.23;;;;;;;18.41;33.58;100265.38;7315270;19;131210;-59
2021/12/09 10:40:30;;;;;;;3.40;0.98;;;;;;;18.43;33.56;100259.56;7316757;19;129458;-59
2021/12/09 10:43:03;;;;;;;2.55;0.95;;;;;;;18.43;33.52;100256.78;7318516;19;129186;-59
2021/12/09 10:45:39;;;;;;;1.88;0.75;;;;;;;18.42;33.12;100261.50;7315272;19;130576;-58
2021/12/09 10:48:22;;;;;;;3.42;0.90;;;;;;;18.42;33.36;100260.66;7317761;19;131305;-59
2021/12/09 10:53:46;;;;;;;3.72;0.80;;;;;;;18.40;33.20;100260.94;7316716;19;129501;-59
2021/12/09 10:56:25;;;;;;;4.07;1.25;;;;;;;18.41;33.15;100268.13;7317534;19;130630;-59
2021/12/09 10:58:52;;;;;;;4.15;0.90;;;;;;;18.39;33.56;100272.25;7314967;19;130659;-58
2021/12/09 11:01:21;;;;;;;4.25;1.08;;;;;;;18.39;33.50;100267.56;7316358;19;128971;-59
2021/12/09 11:03:53;;;;;;;3.20;1.00;;;;;;;18.38;33.43;100263.09;7314794;19;128882;-59
2021/12/09 11:06:35;;;;;;;1.90;0.90;;;;;;;18.39;33.14;100270.34;7315553;19;131532;-59
2021/12/09 11:09:07;;;;;;;3.38;0.82;;;;;;;18.38;33.29;100274.16;7317162;19;130972;-59
2021/12/09 11:11:42;;;;;;;1.38;0.70;;;;;;;18.38;33.45;100270.56;7314432;19;129030;-59
2021/12/09 11:14:17;;;;;;;3.30;1.05;;;;;;;18.36;33.27;100270.81;7316496;19;130069;-59
2021/12/09 11:17:03;;;;;;;1.15;0.50;;;;;;;18.37;33.37;100277.19;7313989;19;130656;-59
2021/12/09 11:22:02;;;;;;;2.63;0.95;;;;;;;18.36;33.61;100272.75;7317015;19;129552;-60
2021/12/09 11:24:35;;;;;;;2.38;1.00;;;;;;;18.36;33.37;100261.69;7314368;19;129537;-59
2021/12/09 11:27:08;;;;;;;1.85;0.77;;;;;;;18.35;33.67;100263.59;7314512;19;130945;-59
2021/12/09 11:29:44;;;;;;;2.92;0.98;;;;;;;18.34;33.40;100259.16;7312308;19;130501;-60
2021/12/09 11:32:52;;;;;;;1.65;0.70;;;;;;;18.34;33.44;100259.16;7315883;19;128971;-59
2021/12/09 11:35:25;;;;;;;2.65;0.88;;;;;;;18.34;33.61;100263.88;7316893;19;129755;-59